Saint Joseph, MI (49085)

2:46 AM EDT on August 30, 2015 (GMT -0400)
South of the High School | | Change Station
CLOSE
Current Station
Personal Weather Station
Location: Saint Joseph, MI
Elevation: 666 ft
Nearby Weather Stations

Elev 666 ft 42.09 °N, 86.49 °W | Updated 1 second ago

Fog
Fog
67.6 °F
Feels Like 67.6 °F
N
0.0
Wind Variable Wind from North
Gusts 0.0 mph

Today
High -- | Low -- °F
--% Chance of Precip.
Yesterday
High -- | Low -- °F
Precip. -- in
7:09 AM 8:23 PM
Full, 100% visible
Pressure 30.01 in
Visibility 2.0 miles
Clouds Mostly Cloudy 1100 ft
Overcast 2900 ft
Dew Point 67 °F
Humidity 99%
Rainfall 0.00 in
Snow Depth Not available.
UV 0 out of 12
Pollen 4.20 out of 12
Air Quality Not available.
Flu Activity Not available.
SPECI KBEH 300610Z AUTO 16003KT 2SM BR BKN011 OVC029 20/19 A3001 RMK AO2 T02000194 $
Pressure 30.01 in
Visibility 2.0 miles
Clouds Mostly Cloudy 1100 ft
Overcast 2900 ft
Dew Point 67 °F
Humidity 99%
Rainfall 0.00 in
Snow Depth Not available.
UV 0 out of 12
Pollen 4.20 out of 12
Air Quality Not available.
Flu Activity Not available.
SPECI KBEH 300610Z AUTO 16003KT 2SM BR BKN011 OVC029 20/19 A3001 RMK AO2 T02000194 $

10-Day Weather Forecast

×

Almanac

Astronomy

Aug. 30, 2015 Rise Set
Actual Time
Civil Twilight
Nautical Twilight
Astronomical Twilight
Moon
Length of Visible Light
Length of Day
Tomorrow will be .
, % of the Moon is Illuminated

Today's Extremes

State Highs State Lows

Community

WunderPhotos

Upload Photos

1,850,904 photos uploaded!

WunderBlogs® & News

Nearby

Air Quality

  Air Quality AQ Index Pollutant
Not available.

Snow Depth

Station Depth Elevation

Earthquake Activity

City Distance Mag. Time & Date
Minimum magnitude displayed is 2.5.

Coastal Water Temperatures

Place Temperature

Stations

Nearby Weather Stations

Station Location Temp. Windchill Dew Point Humidity Wind Precip. Elev Updated Type